sensor_id;sensor_type;location;lat;lon;timestamp;temperature;humidity
42479;DHT22;28110;47.080;9.476;2022-08-06T00:01:42;20.20;99.90
42479;DHT22;28110;47.080;9.476;2022-08-06T00:04:08;20.20;99.90
42479;DHT22;28110;47.080;9.476;2022-08-06T00:06:33;20.20;99.90
42479;DHT22;28110;47.080;9.476;2022-08-06T00:08:59;20.20;99.90
42479;DHT22;28110;47.080;9.476;2022-08-06T00:11:25;20.20;99.90
42479;DHT22;28110;47.080;9.476;2022-08-06T00:13:50;20.10;99.90
42479;DHT22;28110;47.080;9.476;2022-08-06T00:16:16;20.10;99.90
42479;DHT22;28110;47.080;9.476;2022-08-06T00:18:41;20.00;99.90
42479;DHT22;28110;47.080;9.476;2022-08-06T00:21:07;20.00;99.90
42479;DHT22;28110;47.080;9.476;2022-08-06T00:23:32;20.00;99.90
42479;DHT22;28110;47.080;9.476;2022-08-06T00:25:58;20.00;99.90
42479;DHT22;28110;47.080;9.476;2022-08-06T00:28:25;20.00;99.90
42479;DHT22;28110;47.080;9.476;2022-08-06T00:30:51;20.00;99.90
42479;DHT22;28110;47.080;9.476;2022-08-06T00:33:16;20.00;99.90
42479;DHT22;28110;47.080;9.476;2022-08-06T00:35:42;20.00;99.90
42479;DHT22;28110;47.080;9.476;2022-08-06T00:38:08;20.00;99.90
42479;DHT22;28110;47.080;9.476;2022-08-06T00:40:34;20.00;99.90
42479;DHT22;28110;47.080;9.476;2022-08-06T00:43:02;20.00;99.90
42479;DHT22;28110;47.080;9.476;2022-08-06T00:45:29;20.00;99.90
42479;DHT22;28110;47.080;9.476;2022-08-06T00:47:55;20.00;99.90
42479;DHT22;28110;47.080;9.476;2022-08-06T00:50:20;20.00;99.90
42479;DHT22;28110;47.080;9.476;2022-08-06T00:52:46;20.00;99.90
42479;DHT22;28110;47.080;9.476;2022-08-06T00:55:12;20.00;99.90
42479;DHT22;28110;47.080;9.476;2022-08-06T00:57:38;20.00;99.90
42479;DHT22;28110;47.080;9.476;2022-08-06T01:00:05;20.00;99.90
42479;DHT22;28110;47.080;9.476;2022-08-06T01:02:31;20.00;99.90
42479;DHT22;28110;47.080;9.476;2022-08-06T01:04:57;20.00;99.90
42479;DHT22;28110;47.080;9.476;2022-08-06T01:07:23;20.10;99.90
42479;DHT22;28110;47.080;9.476;2022-08-06T01:09:49;20.10;99.90
42479;DHT22;28110;47.080;9.476;2022-08-06T01:12:15;20.10;99.90
42479;DHT22;28110;47.080;9.476;2022-08-06T01:14:41;20.10;99.90
42479;DHT22;28110;47.080;9.476;2022-08-06T01:19:56;20.10;99.90
42479;DHT22;28110;47.080;9.476;2022-08-06T01:25:56;20.10;99.90
42479;DHT22;28110;47.080;9.476;2022-08-06T01:28:28;20.00;99.90
42479;DHT22;28110;47.080;9.476;2022-08-06T01:31:06;20.00;99.90
42479;DHT22;28110;47.080;9.476;2022-08-06T01:33:38;20.00;99.90
42479;DHT22;28110;47.080;9.476;2022-08-06T01:36:11;20.00;99.90
42479;DHT22;28110;47.080;9.476;2022-08-06T01:38:47;19.90;99.90
42479;DHT22;28110;47.080;9.476;2022-08-06T01:41:17;19.90;99.90
42479;DHT22;28110;47.080;9.476;2022-08-06T01:44:14;19.90;99.90
42479;DHT22;28110;47.080;9.476;2022-08-06T01:46:43;19.90;99.90
42479;DHT22;28110;47.080;9.476;2022-08-06T01:49:10;19.90;99.90
42479;DHT22;28110;47.080;9.476;2022-08-06T01:51:37;19.90;99.90
42479;DHT22;28110;47.080;9.476;2022-08-06T01:54:07;19.90;99.90
42479;DHT22;28110;47.080;9.476;2022-08-06T01:56:36;19.90;99.90
42479;DHT22;28110;47.080;9.476;2022-08-06T01:59:04;19.80;99.90
42479;DHT22;28110;47.080;9.476;2022-08-06T02:01:32;19.90;99.90
42479;DHT22;28110;47.080;9.476;2022-08-06T02:03:59;19.90;99.90
42479;DHT22;28110;47.080;9.476;2022-08-06T02:06:30;19.90;99.90
42479;DHT22;28110;47.080;9.476;2022-08-06T02:08:58;19.90;99.90
42479;DHT22;28110;47.080;9.476;2022-08-06T02:11:25;19.90;99.90
42479;DHT22;28110;47.080;9.476;2022-08-06T02:13:52;20.00;99.90
42479;DHT22;28110;47.080;9.476;2022-08-06T02:16:18;19.90;99.90
42479;DHT22;28110;47.080;9.476;2022-08-06T02:18:45;20.00;99.90
42479;DHT22;28110;47.080;9.476;2022-08-06T02:21:17;20.00;99.90
42479;DHT22;28110;47.080;9.476;2022-08-06T02:23:45;20.00;99.90
42479;DHT22;28110;47.080;9.476;2022-08-06T02:26:11;20.00;99.90
42479;DHT22;28110;47.080;9.476;2022-08-06T02:28:39;19.90;99.90
42479;DHT22;28110;47.080;9.476;2022-08-06T02:31:06;19.90;99.90
42479;DHT22;28110;47.080;9.476;2022-08-06T02:33:32;19.80;99.90
42479;DHT22;28110;47.080;9.476;2022-08-06T02:38:52;19.80;99.90
42479;DHT22;28110;47.080;9.476;2022-08-06T02:43:55;19.70;99.90
42479;DHT22;28110;47.080;9.476;2022-08-06T02:46:26;19.60;99.90
42479;DHT22;28110;47.080;9.476;2022-08-06T02:49:03;19.60;99.90
42479;DHT22;28110;47.080;9.476;2022-08-06T02:51:39;19.60;99.90
42479;DHT22;28110;47.080;9.476;2022-08-06T02:54:09;19.70;99.90
42479;DHT22;28110;47.080;9.476;2022-08-06T02:56:40;19.60;99.90
42479;DHT22;28110;47.080;9.476;2022-08-06T02:59:07;19.70;99.90
42479;DHT22;28110;47.080;9.476;2022-08-06T03:01:37;19.60;99.90
42479;DHT22;28110;47.080;9.476;2022-08-06T03:04:06;19.60;99.90
42479;DHT22;28110;47.080;9.476;2022-08-06T03:06:33;19.50;99.90
42479;DHT22;28110;47.080;9.476;2022-08-06T03:09:02;19.40;99.90
42479;DHT22;28110;47.080;9.476;2022-08-06T03:11:30;19.50;99.90
42479;DHT22;28110;47.080;9.476;2022-08-06T03:14:00;19.50;99.90
42479;DHT22;28110;47.080;9.476;2022-08-06T03:16:27;19.40;99.90
42479;DHT22;28110;47.080;9.476;2022-08-06T03:18:54;19.40;99.90
42479;DHT22;28110;47.080;9.476;2022-08-06T03:21:22;19.40;99.90
42479;DHT22;28110;47.080;9.476;2022-08-06T03:23:49;19.40;99.90
42479;DHT22;28110;47.080;9.476;2022-08-06T03:26:15;19.50;99.90
42479;DHT22;28110;47.080;9.476;2022-08-06T03:28:42;19.50;99.90
42479;DHT22;28110;47.080;9.476;2022-08-06T03:31:10;19.50;99.90
42479;DHT22;28110;47.080;9.476;2022-08-06T03:33:36;19.40;99.90
42479;DHT22;28110;47.080;9.476;2022-08-06T03:36:03;19.40;99.90
42479;DHT22;28110;47.080;9.476;2022-08-06T03:38:37;19.50;99.90
42479;DHT22;28110;47.080;9.476;2022-08-06T03:41:03;19.40;99.90
42479;DHT22;28110;47.080;9.476;2022-08-06T03:43:30;19.50;99.90
42479;DHT22;28110;47.080;9.476;2022-08-06T03:46:00;19.40;99.90
42479;DHT22;28110;47.080;9.476;2022-08-06T03:48:32;19.50;99.90
42479;DHT22;28110;47.080;9.476;2022-08-06T03:51:01;19.50;99.90
42479;DHT22;28110;47.080;9.476;2022-08-06T03:53:28;19.50;99.90
42479;DHT22;28110;47.080;9.476;2022-08-06T03:55:57;19.60;99.90
42479;DHT22;28110;47.080;9.476;2022-08-06T03:58:24;19.50;99.90
42479;DHT22;28110;47.080;9.476;2022-08-06T04:00:54;19.50;99.90
42479;DHT22;28110;47.080;9.476;2022-08-06T04:03:20;19.50;99.90
42479;DHT22;28110;47.080;9.476;2022-08-06T04:05:47;19.50;99.90
42479;DHT22;28110;47.080;9.476;2022-08-06T04:08:13;19.50;99.90
42479;DHT22;28110;47.080;9.476;2022-08-06T04:10:44;19.50;99.90
42479;DHT22;28110;47.080;9.476;2022-08-06T04:13:16;19.50;99.90
42479;DHT22;28110;47.080;9.476;2022-08-06T04:15:42;19.50;99.90
42479;DHT22;28110;47.080;9.476;2022-08-06T04:18:10;19.40;99.90
42479;DHT22;28110;47.080;9.476;2022-08-06T04:20:39;19.40;99.90
42479;DHT22;28110;47.080;9.476;2022-08-06T04:23:04;19.40;99.90
42479;DHT22;28110;47.080;9.476;2022-08-06T04:25:36;19.40;99.90
42479;DHT22;28110;47.080;9.476;2022-08-06T04:28:05;19.40;99.90
42479;DHT22;28110;47.080;9.476;2022-08-06T04:30:31;19.40;99.90
42479;DHT22;28110;47.080;9.476;2022-08-06T04:32:58;19.40;99.90
42479;DHT22;28110;47.080;9.476;2022-08-06T04:35:24;19.50;99.90
42479;DHT22;28110;47.080;9.476;2022-08-06T04:37:51;19.50;99.90
42479;DHT22;28110;47.080;9.476;2022-08-06T04:40:17;19.50;99.90
42479;DHT22;28110;47.080;9.476;2022-08-06T04:42:43;19.50;99.90
42479;DHT22;28110;47.080;9.476;2022-08-06T04:45:09;19.60;99.90
42479;DHT22;28110;47.080;9.476;2022-08-06T04:47:35;19.60;99.90
42479;DHT22;28110;47.080;9.476;2022-08-06T04:50:02;19.60;99.90
42479;DHT22;28110;47.080;9.476;2022-08-06T04:52:28;19.60;99.90
42479;DHT22;28110;47.080;9.476;2022-08-06T04:54:54;19.60;99.90
42479;DHT22;28110;47.080;9.476;2022-08-06T04:57:20;19.60;99.90
42479;DHT22;28110;47.080;9.476;2022-08-06T04:59:45;19.60;99.90
42479;DHT22;28110;47.080;9.476;2022-08-06T05:02:11;19.50;99.90
42479;DHT22;28110;47.080;9.476;2022-08-06T05:04:38;19.50;99.90
42479;DHT22;28110;47.080;9.476;2022-08-06T05:09:39;19.50;99.90
42479;DHT22;28110;47.080;9.476;2022-08-06T05:12:23;19.60;99.90
42479;DHT22;28110;47.080;9.476;2022-08-06T05:15:10;19.60;99.90
42479;DHT22;28110;47.080;9.476;2022-08-06T05:17:51;19.60;99.90
42479;DHT22;28110;47.080;9.476;2022-08-06T05:20:20;19.60;99.90
42479;DHT22;28110;47.080;9.476;2022-08-06T05:22:49;19.70;99.90
42479;DHT22;28110;47.080;9.476;2022-08-06T05:25:17;19.60;99.90
42479;DHT22;28110;47.080;9.476;2022-08-06T05:27:43;19.70;99.90
42479;DHT22;28110;47.080;9.476;2022-08-06T05:30:09;19.70;99.90
42479;DHT22;28110;47.080;9.476;2022-08-06T05:32:48;19.70;99.90
42479;DHT22;28110;47.080;9.476;2022-08-06T05:35:14;19.70;99.90
42479;DHT22;28110;47.080;9.476;2022-08-06T05:37:40;19.70;99.90
42479;DHT22;28110;47.080;9.476;2022-08-06T05:40:06;19.70;99.90
42479;DHT22;28110;47.080;9.476;2022-08-06T05:42:32;19.60;99.90
42479;DHT22;28110;47.080;9.476;2022-08-06T05:44:58;19.60;99.90
42479;DHT22;28110;47.080;9.476;2022-08-06T05:47:27;19.60;99.90
42479;DHT22;28110;47.080;9.476;2022-08-06T05:50:09;19.60;99.90
42479;DHT22;28110;47.080;9.476;2022-08-06T05:52:50;19.70;99.90
42479;DHT22;28110;47.080;9.476;2022-08-06T05:55:25;19.70;99.90
42479;DHT22;28110;47.080;9.476;2022-08-06T05:58:05;19.70;99.90
42479;DHT22;28110;47.080;9.476;2022-08-06T06:00:32;19.60;99.90
42479;DHT22;28110;47.080;9.476;2022-08-06T06:03:00;19.60;99.90
42479;DHT22;28110;47.080;9.476;2022-08-06T06:05:27;19.60;99.90
42479;DHT22;28110;47.080;9.476;2022-08-06T06:07:53;19.60;99.90
42479;DHT22;28110;47.080;9.476;2022-08-06T06:10:22;19.60;99.90
42479;DHT22;28110;47.080;9.476;2022-08-06T06:12:49;19.60;99.90
42479;DHT22;28110;47.080;9.476;2022-08-06T06:15:16;19.70;99.90
42479;DHT22;28110;47.080;9.476;2022-08-06T06:17:54;19.70;99.90
42479;DHT22;28110;47.080;9.476;2022-08-06T06:23:11;19.80;99.90
42479;DHT22;28110;47.080;9.476;2022-08-06T06:25:49;19.90;99.90
42479;DHT22;28110;47.080;9.476;2022-08-06T06:28:57;20.00;99.90
42479;DHT22;28110;47.080;9.476;2022-08-06T06:34:08;20.10;99.90
42479;DHT22;28110;47.080;9.476;2022-08-06T06:36:43;20.10;99.90
42479;DHT22;28110;47.080;9.476;2022-08-06T06:39:38;20.20;99.90
42479;DHT22;28110;47.080;9.476;2022-08-06T06:42:12;20.30;99.90
42479;DHT22;28110;47.080;9.476;2022-08-06T06:44:49;20.30;99.90
42479;DHT22;28110;47.080;9.476;2022-08-06T06:47:33;20.40;99.90
42479;DHT22;28110;47.080;9.476;2022-08-06T06:50:22;20.40;99.90
42479;DHT22;28110;47.080;9.476;2022-08-06T06:52:51;20.40;99.90
42479;DHT22;28110;47.080;9.476;2022-08-06T06:55:22;20.40;99.90
42479;DHT22;28110;47.080;9.476;2022-08-06T06:57:58;20.40;99.90
42479;DHT22;28110;47.080;9.476;2022-08-06T07:00:26;20.40;99.90
42479;DHT22;28110;47.080;9.476;2022-08-06T07:02:54;20.50;99.90
42479;DHT22;28110;47.080;9.476;2022-08-06T07:05:22;20.50;99.90
42479;DHT22;28110;47.080;9.476;2022-08-06T07:07:50;20.50;99.90
42479;DHT22;28110;47.080;9.476;2022-08-06T07:10:17;20.60;99.90
42479;DHT22;28110;47.080;9.476;2022-08-06T07:12:45;20.60;99.90
42479;DHT22;28110;47.080;9.476;2022-08-06T07:15:12;20.60;99.90
42479;DHT22;28110;47.080;9.476;2022-08-06T07:17:38;20.70;99.90
42479;DHT22;28110;47.080;9.476;2022-08-06T07:20:09;20.80;99.90
42479;DHT22;28110;47.080;9.476;2022-08-06T07:22:39;20.90;99.90
42479;DHT22;28110;47.080;9.476;2022-08-06T07:25:07;20.70;99.90
42479;DHT22;28110;47.080;9.476;2022-08-06T07:27:37;20.70;99.90
42479;DHT22;28110;47.080;9.476;2022-08-06T07:30:04;20.70;99.90
42479;DHT22;28110;47.080;9.476;2022-08-06T07:32:32;20.70;99.90
42479;DHT22;28110;47.080;9.476;2022-08-06T07:34:58;20.70;99.90
42479;DHT22;28110;47.080;9.476;2022-08-06T07:37:25;20.70;99.90
42479;DHT22;28110;47.080;9.476;2022-08-06T07:39:53;20.70;99.90
42479;DHT22;28110;47.080;9.476;2022-08-06T07:42:20;20.60;99.90
42479;DHT22;28110;47.080;9.476;2022-08-06T07:44:52;20.60;99.90
42479;DHT22;28110;47.080;9.476;2022-08-06T07:47:27;20.70;99.90
42479;DHT22;28110;47.080;9.476;2022-08-06T07:49:55;20.60;99.90
42479;DHT22;28110;47.080;9.476;2022-08-06T07:52:22;20.70;99.90
42479;DHT22;28110;47.080;9.476;2022-08-06T07:54:48;20.70;99.90
42479;DHT22;28110;47.080;9.476;2022-08-06T07:57:14;20.70;99.90
42479;DHT22;28110;47.080;9.476;2022-08-06T07:59:41;20.70;99.90
42479;DHT22;28110;47.080;9.476;2022-08-06T08:02:08;20.80;99.90
42479;DHT22;28110;47.080;9.476;2022-08-06T08:04:35;20.80;99.90
42479;DHT22;28110;47.080;9.476;2022-08-06T08:07:21;20.80;99.90
42479;DHT22;28110;47.080;9.476;2022-08-06T08:09:48;20.80;99.90
42479;DHT22;28110;47.080;9.476;2022-08-06T08:12:16;20.80;99.90
42479;DHT22;28110;47.080;9.476;2022-08-06T08:14:47;20.90;99.90
42479;DHT22;28110;47.080;9.476;2022-08-06T08:17:14;20.80;99.90
42479;DHT22;28110;47.080;9.476;2022-08-06T08:19:40;20.90;99.90
42479;DHT22;28110;47.080;9.476;2022-08-06T08:22:09;21.00;99.90
42479;DHT22;28110;47.080;9.476;2022-08-06T08:24:36;21.00;99.90
42479;DHT22;28110;47.080;9.476;2022-08-06T08:27:02;21.10;99.90
42479;DHT22;28110;47.080;9.476;2022-08-06T08:29:34;21.10;99.90
42479;DHT22;28110;47.080;9.476;2022-08-06T08:32:00;21.20;99.90
42479;DHT22;28110;47.080;9.476;2022-08-06T08:34:26;21.40;99.90
42479;DHT22;28110;47.080;9.476;2022-08-06T08:36:51;21.70;99.90
42479;DHT22;28110;47.080;9.476;2022-08-06T08:39:17;21.80;99.90
42479;DHT22;28110;47.080;9.476;2022-08-06T08:41:44;22.00;99.90
42479;DHT22;28110;47.080;9.476;2022-08-06T08:44:09;22.10;99.90
42479;DHT22;28110;47.080;9.476;2022-08-06T08:46:43;22.10;99.90
42479;DHT22;28110;47.080;9.476;2022-08-06T08:49:37;22.10;99.90
42479;DHT22;28110;47.080;9.476;2022-08-06T08:52:04;22.00;99.90
42479;DHT22;28110;47.080;9.476;2022-08-06T08:54:35;22.00;99.90
42479;DHT22;28110;47.080;9.476;2022-08-06T08:57:02;21.90;99.90
42479;DHT22;28110;47.080;9.476;2022-08-06T08:59:29;21.90;99.90
42479;DHT22;28110;47.080;9.476;2022-08-06T09:01:56;22.00;99.90
42479;DHT22;28110;47.080;9.476;2022-08-06T09:04:23;22.10;99.90
42479;DHT22;28110;47.080;9.476;2022-08-06T09:06:49;22.20;99.90
42479;DHT22;28110;47.080;9.476;2022-08-06T09:09:15;22.30;99.90
42479;DHT22;28110;47.080;9.476;2022-08-06T09:11:41;22.30;99.90
42479;DHT22;28110;47.080;9.476;2022-08-06T09:14:08;22.30;99.90
42479;DHT22;28110;47.080;9.476;2022-08-06T09:16:35;22.20;99.90
42479;DHT22;28110;47.080;9.476;2022-08-06T09:19:02;22.10;99.90
42479;DHT22;28110;47.080;9.476;2022-08-06T09:21:28;22.10;99.90
42479;DHT22;28110;47.080;9.476;2022-08-06T09:23:55;22.20;99.90
42479;DHT22;28110;47.080;9.476;2022-08-06T09:26:21;22.30;99.90
42479;DHT22;28110;47.080;9.476;2022-08-06T09:28:47;22.20;99.90
42479;DHT22;28110;47.080;9.476;2022-08-06T09:31:14;22.20;99.90
42479;DHT22;28110;47.080;9.476;2022-08-06T09:33:42;22.20;99.90
42479;DHT22;28110;47.080;9.476;2022-08-06T09:36:12;22.20;99.90
42479;DHT22;28110;47.080;9.476;2022-08-06T09:38:54;22.30;99.90
42479;DHT22;28110;47.080;9.476;2022-08-06T09:41:22;22.20;99.90
42479;DHT22;28110;47.080;9.476;2022-08-06T09:43:50;22.00;99.90
42479;DHT22;28110;47.080;9.476;2022-08-06T09:46:17;22.10;99.90
42479;DHT22;28110;47.080;9.476;2022-08-06T09:49:00;22.20;99.90
42479;DHT22;28110;47.080;9.476;2022-08-06T09:51:26;22.10;99.90
42479;DHT22;28110;47.080;9.476;2022-08-06T09:53:57;22.00;99.90
42479;DHT22;28110;47.080;9.476;2022-08-06T09:56:24;22.10;99.90
42479;DHT22;28110;47.080;9.476;2022-08-06T09:58:50;22.10;99.90
42479;DHT22;28110;47.080;9.476;2022-08-06T10:01:18;22.00;99.90
42479;DHT22;28110;47.080;9.476;2022-08-06T10:03:44;22.00;99.90
42479;DHT22;28110;47.080;9.476;2022-08-06T10:06:17;22.00;99.90
42479;DHT22;28110;47.080;9.476;2022-08-06T10:08:51;22.00;99.90
42479;DHT22;28110;47.080;9.476;2022-08-06T10:11:35;22.10;99.90
42479;DHT22;28110;47.080;9.476;2022-08-06T10:14:01;22.10;99.90
42479;DHT22;28110;47.080;9.476;2022-08-06T10:16:28;22.10;99.90
42479;DHT22;28110;47.080;9.476;2022-08-06T10:18:56;22.10;99.90
42479;DHT22;28110;47.080;9.476;2022-08-06T10:21:25;22.20;99.90
42479;DHT22;28110;47.080;9.476;2022-08-06T10:23:55;22.20;99.90
42479;DHT22;28110;47.080;9.476;2022-08-06T10:26:29;22.40;99.90
42479;DHT22;28110;47.080;9.476;2022-08-06T10:29:01;22.40;99.90
42479;DHT22;28110;47.080;9.476;2022-08-06T10:31:27;22.30;99.90
42479;DHT22;28110;47.080;9.476;2022-08-06T10:34:00;22.40;99.90
42479;DHT22;28110;47.080;9.476;2022-08-06T10:36:35;22.40;99.90
42479;DHT22;28110;47.080;9.476;2022-08-06T10:39:01;22.40;99.90
42479;DHT22;28110;47.080;9.476;2022-08-06T10:41:27;22.20;99.90
42479;DHT22;28110;47.080;9.476;2022-08-06T10:43:53;22.10;99.90
42479;DHT22;28110;47.080;9.476;2022-08-06T10:46:20;22.20;99.90
42479;DHT22;28110;47.080;9.476;2022-08-06T10:48:47;22.20;99.90
42479;DHT22;28110;47.080;9.476;2022-08-06T10:51:14;22.30;99.90
42479;DHT22;28110;47.080;9.476;2022-08-06T10:53:43;22.30;99.90
42479;DHT22;28110;47.080;9.476;2022-08-06T10:56:10;22.30;99.90
42479;DHT22;28110;47.080;9.476;2022-08-06T10:58:37;22.40;99.90
42479;DHT22;28110;47.080;9.476;2022-08-06T11:12:06;22.40;99.90
42479;DHT22;28110;47.080;9.476;2022-08-06T11:14:36;22.40;99.90
42479;DHT22;28110;47.080;9.476;2022-08-06T11:17:02;22.50;99.90
42479;DHT22;28110;47.080;9.476;2022-08-06T11:22:08;22.40;99.90
42479;DHT22;28110;47.080;9.476;2022-08-06T11:24:53;22.50;99.90
42479;DHT22;28110;47.080;9.476;2022-08-06T11:27:51;22.50;99.90
42479;DHT22;28110;47.080;9.476;2022-08-06T11:30:18;22.70;99.90
42479;DHT22;28110;47.080;9.476;2022-08-06T11:32:52;22.60;99.90
42479;DHT22;28110;47.080;9.476;2022-08-06T11:38:04;22.40;99.90
42479;DHT22;28110;47.080;9.476;2022-08-06T11:40:59;22.30;99.90
42479;DHT22;28110;47.080;9.476;2022-08-06T11:46:25;22.10;99.90
42479;DHT22;28110;47.080;9.476;2022-08-06T11:54:28;21.90;99.90
42479;DHT22;28110;47.080;9.476;2022-08-06T12:02:08;21.70;99.90
42479;DHT22;28110;47.080;9.476;2022-08-06T12:07:25;21.60;99.90
42479;DHT22;28110;47.080;9.476;2022-08-06T12:17:39;22.20;99.90
42479;DHT22;28110;47.080;9.476;2022-08-06T12:20:05;22.20;99.90
42479;DHT22;28110;47.080;9.476;2022-08-06T12:22:32;22.20;99.90
42479;DHT22;28110;47.080;9.476;2022-08-06T12:25:00;22.10;99.90
42479;DHT22;28110;47.080;9.476;2022-08-06T12:27:34;22.00;99.90
42479;DHT22;28110;47.080;9.476;2022-08-06T12:30:02;22.00;99.90
42479;DHT22;28110;47.080;9.476;2022-08-06T12:32:31;22.00;99.90
42479;DHT22;28110;47.080;9.476;2022-08-06T12:34:59;21.90;99.90
42479;DHT22;28110;47.080;9.476;2022-08-06T12:37:34;22.00;99.90
42479;DHT22;28110;47.080;9.476;2022-08-06T12:40:02;21.90;99.90
42479;DHT22;28110;47.080;9.476;2022-08-06T12:42:47;22.00;99.90
42479;DHT22;28110;47.080;9.476;2022-08-06T12:45:12;22.10;99.90
42479;DHT22;28110;47.080;9.476;2022-08-06T12:47:38;22.20;99.90
42479;DHT22;28110;47.080;9.476;2022-08-06T12:50:19;22.10;99.90
42479;DHT22;28110;47.080;9.476;2022-08-06T12:53:11;22.10;99.90
42479;DHT22;28110;47.080;9.476;2022-08-06T12:55:53;22.00;99.90
42479;DHT22;28110;47.080;9.476;2022-08-06T12:58:32;22.00;99.90
42479;DHT22;28110;47.080;9.476;2022-08-06T13:01:00;21.80;99.90
42479;DHT22;28110;47.080;9.476;2022-08-06T13:03:27;21.80;99.90
42479;DHT22;28110;47.080;9.476;2022-08-06T13:05:56;21.80;99.90
42479;DHT22;28110;47.080;9.476;2022-08-06T13:08:24;21.70;99.90
42479;DHT22;28110;47.080;9.476;2022-08-06T13:10:51;21.70;99.90
42479;DHT22;28110;47.080;9.476;2022-08-06T13:13:18;21.80;99.90
42479;DHT22;28110;47.080;9.476;2022-08-06T13:16:06;21.90;99.90
42479;DHT22;28110;47.080;9.476;2022-08-06T13:18:32;21.80;99.90
42479;DHT22;28110;47.080;9.476;2022-08-06T13:20:58;21.90;99.90
42479;DHT22;28110;47.080;9.476;2022-08-06T13:23:35;21.80;99.90
42479;DHT22;28110;47.080;9.476;2022-08-06T13:26:31;21.60;99.90
42479;DHT22;28110;47.080;9.476;2022-08-06T13:29:22;21.70;99.90
42479;DHT22;28110;47.080;9.476;2022-08-06T13:32:04;21.70;99.90
42479;DHT22;28110;47.080;9.476;2022-08-06T13:34:45;21.70;99.90
42479;DHT22;28110;47.080;9.476;2022-08-06T13:37:11;21.60;99.90
42479;DHT22;28110;47.080;9.476;2022-08-06T13:39:49;21.50;99.90
42479;DHT22;28110;47.080;9.476;2022-08-06T13:42:15;21.60;99.90
42479;DHT22;28110;47.080;9.476;2022-08-06T13:44:42;21.60;99.90
42479;DHT22;28110;47.080;9.476;2022-08-06T13:47:09;21.60;99.90
42479;DHT22;28110;47.080;9.476;2022-08-06T13:49:38;21.60;99.90
42479;DHT22;28110;47.080;9.476;2022-08-06T13:52:04;21.40;99.90
42479;DHT22;28110;47.080;9.476;2022-08-06T13:54:30;21.50;99.90
42479;DHT22;28110;47.080;9.476;2022-08-06T13:56:56;21.40;99.90
42479;DHT22;28110;47.080;9.476;2022-08-06T13:59:25;21.50;99.90
42479;DHT22;28110;47.080;9.476;2022-08-06T14:01:51;21.40;99.90
42479;DHT22;28110;47.080;9.476;2022-08-06T14:04:19;21.50;99.90
42479;DHT22;28110;47.080;9.476;2022-08-06T14:06:47;21.40;99.90
42479;DHT22;28110;47.080;9.476;2022-08-06T14:09:14;21.30;99.90
42479;DHT22;28110;47.080;9.476;2022-08-06T14:11:41;21.00;99.90
42479;DHT22;28110;47.080;9.476;2022-08-06T14:14:08;21.10;99.90
42479;DHT22;28110;47.080;9.476;2022-08-06T14:16:34;21.10;99.90
42479;DHT22;28110;47.080;9.476;2022-08-06T14:18:59;21.20;99.90
42479;DHT22;28110;47.080;9.476;2022-08-06T14:21:25;21.20;99.90
42479;DHT22;28110;47.080;9.476;2022-08-06T14:23:51;21.00;99.90
42479;DHT22;28110;47.080;9.476;2022-08-06T14:26:17;21.10;99.90
42479;DHT22;28110;47.080;9.476;2022-08-06T14:28:42;21.10;99.90
42479;DHT22;28110;47.080;9.476;2022-08-06T14:31:08;21.00;99.90
42479;DHT22;28110;47.080;9.476;2022-08-06T14:33:34;21.20;99.90
42479;DHT22;28110;47.080;9.476;2022-08-06T14:36:00;21.30;99.90
42479;DHT22;28110;47.080;9.476;2022-08-06T14:38:25;21.20;99.90
42479;DHT22;28110;47.080;9.476;2022-08-06T14:40:51;21.30;99.90
42479;DHT22;28110;47.080;9.476;2022-08-06T14:43:35;21.20;99.90
42479;DHT22;28110;47.080;9.476;2022-08-06T14:46:19;21.20;99.90
42479;DHT22;28110;47.080;9.476;2022-08-06T14:48:45;21.40;99.90
42479;DHT22;28110;47.080;9.476;2022-08-06T14:51:11;21.40;99.90
42479;DHT22;28110;47.080;9.476;2022-08-06T14:53:36;21.40;99.90
42479;DHT22;28110;47.080;9.476;2022-08-06T14:56:02;21.50;99.90
42479;DHT22;28110;47.080;9.476;2022-08-06T14:58:27;21.40;99.90
42479;DHT22;28110;47.080;9.476;2022-08-06T15:00:53;21.30;99.90
42479;DHT22;28110;47.080;9.476;2022-08-06T15:03:19;21.50;99.90
42479;DHT22;28110;47.080;9.476;2022-08-06T15:05:46;21.50;99.90
42479;DHT22;28110;47.080;9.476;2022-08-06T15:08:12;21.40;99.90
42479;DHT22;28110;47.080;9.476;2022-08-06T15:10:37;21.30;99.90
42479;DHT22;28110;47.080;9.476;2022-08-06T15:13:04;21.40;99.90
42479;DHT22;28110;47.080;9.476;2022-08-06T15:15:31;21.10;99.90
42479;DHT22;28110;47.080;9.476;2022-08-06T15:17:56;21.00;99.90
42479;DHT22;28110;47.080;9.476;2022-08-06T15:20:22;21.10;99.90
42479;DHT22;28110;47.080;9.476;2022-08-06T15:22:47;21.00;99.90
42479;DHT22;28110;47.080;9.476;2022-08-06T15:25:13;21.00;99.90
42479;DHT22;28110;47.080;9.476;2022-08-06T15:27:46;20.90;99.90
42479;DHT22;28110;47.080;9.476;2022-08-06T15:30:13;20.90;99.90
42479;DHT22;28110;47.080;9.476;2022-08-06T15:32:39;20.70;99.90
42479;DHT22;28110;47.080;9.476;2022-08-06T15:35:05;20.80;99.90
42479;DHT22;28110;47.080;9.476;2022-08-06T15:37:31;20.70;99.90
42479;DHT22;28110;47.080;9.476;2022-08-06T15:39:56;20.70;99.90
42479;DHT22;28110;47.080;9.476;2022-08-06T15:42:23;20.70;99.90
42479;DHT22;28110;47.080;9.476;2022-08-06T15:44:49;20.60;99.90
42479;DHT22;28110;47.080;9.476;2022-08-06T15:47:14;20.50;99.90
42479;DHT22;28110;47.080;9.476;2022-08-06T15:49:40;20.50;99.90
42479;DHT22;28110;47.080;9.476;2022-08-06T15:52:06;20.50;99.90
42479;DHT22;28110;47.080;9.476;2022-08-06T15:54:32;20.30;99.90
42479;DHT22;28110;47.080;9.476;2022-08-06T15:56:59;20.30;99.90
42479;DHT22;28110;47.080;9.476;2022-08-06T15:59:24;20.30;99.90
42479;DHT22;28110;47.080;9.476;2022-08-06T16:01:50;20.20;99.90
42479;DHT22;28110;47.080;9.476;2022-08-06T16:04:16;20.20;99.90
42479;DHT22;28110;47.080;9.476;2022-08-06T16:06:42;20.20;99.90
42479;DHT22;28110;47.080;9.476;2022-08-06T16:09:07;20.30;99.90
42479;DHT22;28110;47.080;9.476;2022-08-06T16:11:33;20.30;99.90
42479;DHT22;28110;47.080;9.476;2022-08-06T16:13:58;20.30;99.90
42479;DHT22;28110;47.080;9.476;2022-08-06T16:16:24;20.30;99.90
42479;DHT22;28110;47.080;9.476;2022-08-06T16:18:50;20.20;99.90
42479;DHT22;28110;47.080;9.476;2022-08-06T16:21:16;20.20;99.90
42479;DHT22;28110;47.080;9.476;2022-08-06T16:23:41;20.20;99.90
42479;DHT22;28110;47.080;9.476;2022-08-06T16:26:07;20.20;99.90
42479;DHT22;28110;47.080;9.476;2022-08-06T16:28:33;20.20;99.90
42479;DHT22;28110;47.080;9.476;2022-08-06T16:30:58;20.20;99.90
42479;DHT22;28110;47.080;9.476;2022-08-06T16:33:24;20.10;99.90
42479;DHT22;28110;47.080;9.476;2022-08-06T16:35:49;20.10;99.90
42479;DHT22;28110;47.080;9.476;2022-08-06T16:38:16;20.10;99.90
42479;DHT22;28110;47.080;9.476;2022-08-06T16:40:42;20.10;99.90
42479;DHT22;28110;47.080;9.476;2022-08-06T16:43:08;20.20;99.90